createdAt,value
2023-06-01T00:00:58.934Z,59.67
2023-06-01T00:03:25.966Z,59.70
2023-06-01T00:05:52.969Z,59.89
2023-06-01T00:08:19.574Z,60.86
2023-06-01T00:10:47.538Z,60.42
2023-06-01T00:13:14.315Z,61.27
2023-06-01T00:15:40.976Z,60.57
2023-06-01T00:18:07.896Z,61.55
2023-06-01T00:20:34.713Z,61.22
2023-06-01T00:23:01.576Z,61.55
2023-06-01T00:25:28.465Z,62.20
2023-06-01T00:27:56.533Z,62.79
2023-06-01T00:30:23.292Z,62.44
2023-06-01T00:32:49.929Z,62.27
2023-06-01T00:35:16.598Z,63.23
2023-06-01T00:37:43.408Z,62.50
2023-06-01T00:40:11.243Z,62.89
2023-06-01T00:42:37.889Z,62.84
2023-06-01T00:45:07.293Z,64.20
2023-06-01T00:47:40.694Z,64.81
2023-06-01T00:50:08.089Z,65.15
2023-06-01T00:52:36.531Z,64.63
2023-06-01T00:55:03.665Z,64.57
2023-06-01T00:57:31.013Z,66.06
2023-06-01T00:59:58.439Z,66.59
2023-06-01T01:02:26.657Z,66.84
2023-06-01T01:04:53.333Z,67.28
2023-06-01T01:07:26.111Z,67.70
2023-06-01T01:09:59.700Z,68.35
2023-06-01T01:12:34.282Z,67.88
2023-06-01T01:15:08.582Z,68.10
2023-06-01T01:17:40.103Z,68.84
2023-06-01T01:20:10.749Z,68.80
2023-06-01T01:22:48.565Z,69.91
2023-06-01T01:25:48.994Z,70.15
2023-06-01T01:28:41.246Z,71.07
2023-06-01T01:31:10.588Z,71.12
2023-06-01T01:33:37.999Z,71.04
2023-06-01T01:36:06.754Z,71.40
2023-06-01T01:38:35.408Z,71.38
2023-06-01T01:41:02.274Z,71.91
2023-06-01T01:43:29.928Z,71.81
2023-06-01T01:46:06.815Z,72.22
2023-06-01T01:48:45.184Z,71.70
2023-06-01T01:51:17.710Z,72.59
2023-06-01T01:53:46.278Z,72.25
2023-06-01T01:56:14.722Z,72.96
2023-06-01T01:58:43.086Z,72.99
2023-06-01T02:01:11.432Z,72.93
2023-06-01T02:03:38.541Z,73.14
2023-06-01T02:06:05.517Z,73.30
2023-06-01T02:08:32.157Z,74.63
2023-06-01T02:10:58.923Z,75.08
2023-06-01T02:13:25.528Z,75.90
2023-06-01T02:15:52.168Z,75.21
2023-06-01T02:18:20.271Z,76.05
2023-06-01T02:20:47.117Z,76.05
2023-06-01T02:23:13.710Z,77.41
2023-06-01T02:25:40.316Z,76.46
2023-06-01T02:28:06.919Z,78.54
2023-06-01T02:30:33.647Z,79.11
2023-06-01T02:33:00.360Z,79.83
2023-06-01T02:35:28.399Z,80.03
2023-06-01T02:37:55.144Z,80.20
2023-06-01T02:40:21.902Z,80.71
2023-06-01T02:42:48.492Z,80.64
2023-06-01T02:45:15.351Z,80.88
2023-06-01T02:47:42.117Z,81.31
2023-06-01T02:50:09.551Z,81.75
2023-06-01T02:52:37.967Z,81.92
2023-06-01T02:55:05.382Z,82.53
2023-06-01T02:57:31.968Z,81.44
2023-06-01T02:59:58.609Z,81.35
2023-06-01T03:02:25.291Z,82.94
2023-06-01T03:04:51.993Z,82.97
2023-06-01T03:07:18.605Z,83.69
2023-06-01T03:09:46.565Z,83.15
2023-06-01T03:12:13.463Z,83.85
2023-06-01T03:14:40.072Z,83.83
2023-06-01T03:17:07.060Z,83.54
2023-06-01T03:19:33.745Z,84.47
2023-06-01T03:22:00.533Z,84.37
2023-06-01T03:24:27.452Z,84.56
2023-06-01T03:26:55.465Z,84.33
2023-06-01T03:29:22.305Z,84.76
2023-06-01T03:31:49.109Z,84.52
2023-06-01T03:34:15.746Z,85.43
2023-06-01T03:36:42.657Z,84.27
2023-06-01T03:39:09.490Z,84.35
2023-06-01T03:41:36.278Z,84.41
2023-06-01T03:44:04.696Z,84.93
2023-06-01T03:46:31.477Z,85.65
2023-06-01T03:48:58.091Z,85.26
2023-06-01T03:51:25.132Z,85.03
2023-06-01T03:53:52.631Z,83.62
2023-06-01T03:56:19.424Z,84.54
2023-06-01T03:58:46.353Z,83.53
2023-06-01T04:01:14.486Z,83.91
2023-06-01T04:03:41.169Z,83.40
2023-06-01T04:06:08.099Z,84.19
2023-06-01T04:08:34.827Z,82.68
2023-06-01T04:11:01.667Z,82.48
2023-06-01T04:13:29.921Z,82.54
2023-06-01T04:15:57.420Z,82.50
2023-06-01T04:18:25.437Z,82.01
2023-06-01T04:20:52.033Z,82.31
2023-06-01T04:23:18.811Z,82.02
2023-06-01T04:25:45.524Z,82.10
2023-06-01T04:28:13.457Z,82.65
2023-06-01T04:30:40.636Z,82.84
2023-06-01T04:33:07.221Z,83.62
2023-06-01T04:35:35.245Z,83.05
2023-06-01T04:38:02.456Z,83.82
2023-06-01T04:40:29.267Z,81.73
2023-06-01T04:42:55.907Z,82.02
2023-06-01T04:45:23.036Z,82.72
2023-06-01T04:47:49.766Z,84.16
2023-06-01T04:50:16.830Z,83.34
2023-06-01T04:52:45.498Z,81.72
2023-06-01T04:55:12.683Z,81.41
2023-06-01T04:57:39.950Z,81.11
2023-06-01T05:00:08.037Z,81.55
2023-06-01T05:02:34.644Z,81.05
2023-06-01T05:05:01.489Z,80.91
2023-06-01T05:07:28.077Z,79.56
2023-06-01T05:09:56.654Z,79.21
2023-06-01T05:12:23.239Z,80.35
2023-06-01T05:14:49.991Z,79.61
2023-06-01T05:17:16.792Z,78.47
2023-06-01T05:19:43.375Z,76.49
2023-06-01T05:22:09.990Z,75.79
2023-06-01T05:24:36.601Z,77.20
2023-06-01T05:27:05.438Z,79.00
2023-06-01T05:29:32.060Z,78.15
2023-06-01T05:31:58.825Z,78.30
2023-06-01T05:34:25.505Z,78.92
2023-06-01T05:36:52.119Z,77.88
2023-06-01T05:39:18.903Z,78.13
2023-06-01T05:41:45.568Z,77.85
2023-06-01T05:44:13.544Z,77.69
2023-06-01T05:46:40.269Z,77.60
2023-06-01T05:49:06.869Z,76.22
2023-06-01T05:51:33.585Z,77.31
2023-06-01T05:54:00.274Z,78.04
2023-06-01T05:56:26.934Z,77.00
2023-06-01T05:58:53.538Z,77.24
2023-06-01T06:01:21.876Z,77.35
2023-06-01T06:03:48.693Z,77.85
2023-06-01T06:06:15.721Z,76.85
2023-06-01T06:08:42.282Z,75.95
2023-06-01T06:11:08.974Z,77.30
2023-06-01T06:13:35.646Z,78.52
2023-06-01T06:16:02.381Z,77.78
2023-06-01T06:18:30.428Z,76.65
2023-06-01T06:20:59.254Z,75.18
2023-06-01T06:23:25.919Z,75.25
2023-06-01T06:25:52.534Z,75.61
2023-06-01T06:28:19.587Z,73.25
2023-06-01T06:30:46.174Z,73.01
2023-06-01T06:33:15.268Z,71.29
2023-06-01T06:35:43.686Z,71.29
2023-06-01T06:38:13.952Z,71.36
2023-06-01T06:40:40.620Z,70.71
2023-06-01T06:43:07.217Z,70.70
2023-06-01T06:45:33.813Z,71.18
2023-06-01T06:48:00.448Z,70.84
2023-06-01T06:50:27.062Z,69.56
2023-06-01T06:52:55.082Z,68.27
2023-06-01T06:55:21.820Z,68.37
2023-06-01T06:57:48.393Z,67.94
2023-06-01T07:00:16.007Z,68.53
2023-06-01T07:02:43.016Z,67.97
2023-06-01T07:05:09.614Z,66.68
2023-06-01T07:07:36.238Z,66.54
2023-06-01T07:10:05.397Z,64.59
2023-06-01T07:12:32.546Z,63.40
2023-06-01T07:14:59.134Z,63.17
2023-06-01T07:17:25.936Z,62.92
2023-06-01T07:19:52.583Z,63.11
2023-06-01T07:22:19.249Z,62.24
2023-06-01T07:24:45.832Z,61.06
2023-06-01T07:27:13.832Z,59.97
2023-06-01T07:29:40.490Z,56.46
2023-06-01T07:32:07.513Z,53.67
2023-06-01T07:34:34.279Z,51.02
2023-06-01T07:37:14.917Z,49.18
2023-06-01T07:39:42.614Z,47.82
2023-06-01T07:42:09.238Z,47.19
2023-06-01T07:44:37.182Z,48.28
2023-06-01T07:47:04.490Z,49.34
2023-06-01T07:49:31.256Z,50.08
2023-06-01T07:51:57.932Z,47.89
2023-06-01T07:54:24.742Z,48.02
2023-06-01T07:56:51.334Z,49.28
2023-06-01T07:59:17.935Z,51.75
2023-06-01T08:01:45.910Z,53.11
2023-06-01T08:04:12.551Z,55.51
2023-06-01T08:06:39.192Z,55.10
2023-06-01T08:09:05.897Z,53.24
2023-06-01T08:11:32.604Z,52.36
2023-06-01T08:13:59.364Z,53.11
2023-06-01T08:16:27.793Z,51.87
2023-06-01T08:18:56.124Z,53.47
2023-06-01T08:21:22.759Z,52.79
2023-06-01T08:23:49.347Z,52.84
2023-06-01T08:26:16.000Z,52.26
2023-06-01T08:28:42.574Z,52.21
2023-06-01T08:31:12.206Z,50.69
2023-06-01T08:33:38.839Z,50.75
2023-06-01T08:36:07.673Z,49.71
2023-06-01T08:38:34.314Z,49.65
2023-06-01T08:41:09.167Z,50.31
2023-06-01T08:43:37.789Z,50.89
2023-06-01T08:46:04.730Z,50.46
2023-06-01T08:48:32.873Z,48.99
2023-06-01T08:51:01.420Z,49.71
2023-06-01T08:53:32.582Z,48.67
2023-06-01T08:55:59.196Z,49.05
2023-06-01T08:58:26.571Z,50.04
2023-06-01T09:00:54.964Z,48.56
2023-06-01T09:03:22.104Z,48.29
2023-06-01T09:05:48.853Z,47.94
2023-06-01T09:08:16.263Z,48.31
2023-06-01T09:10:44.326Z,47.82
2023-06-01T09:13:10.954Z,48.69
2023-06-01T09:15:51.111Z,48.96
2023-06-01T09:18:17.856Z,48.49
2023-06-01T09:20:44.538Z,48.05
2023-06-01T09:23:11.258Z,47.42
2023-06-01T09:25:37.867Z,48.35
2023-06-01T09:28:05.845Z,47.14
2023-06-01T09:30:42.178Z,48.03
2023-06-01T09:33:12.027Z,47.66
2023-06-01T09:35:39.561Z,49.41
2023-06-01T09:38:06.688Z,49.07
2023-06-01T09:40:34.283Z,47.80
2023-06-01T09:43:01.148Z,46.54
2023-06-01T09:45:31.556Z,48.12
2023-06-01T09:48:16.863Z,48.16
2023-06-01T09:50:43.485Z,47.81
2023-06-01T09:53:10.260Z,47.43
2023-06-01T09:55:36.884Z,46.68
2023-06-01T09:58:28.087Z,46.73
2023-06-01T10:01:00.524Z,46.86
2023-06-01T10:03:28.967Z,46.54
2023-06-01T10:05:56.527Z,46.28
2023-06-01T10:08:23.406Z,46.26
2023-06-01T10:10:50.169Z,46.54
2023-06-01T10:13:16.836Z,45.51
2023-06-01T10:15:43.577Z,45.47
2023-06-01T10:18:13.195Z,46.40
2023-06-01T10:20:42.846Z,45.19
2023-06-01T10:23:29.774Z,45.31
2023-06-01T10:25:59.860Z,45.49
2023-06-01T10:28:27.153Z,45.69
2023-06-01T10:31:34.236Z,44.92
2023-06-01T10:34:11.390Z,45.95
2023-06-01T10:37:17.951Z,45.62
2023-06-01T10:39:50.974Z,45.30
2023-06-01T10:42:42.110Z,44.22
2023-06-01T10:45:38.492Z,43.88
2023-06-01T10:48:06.739Z,44.57
2023-06-01T10:50:35.535Z,45.57
2023-06-01T10:53:27.445Z,43.59
2023-06-01T10:56:19.785Z,43.26
2023-06-01T10:58:46.543Z,42.74
2023-06-01T11:01:20.297Z,42.94
2023-06-01T11:03:48.990Z,43.48
2023-06-01T11:06:29.687Z,41.61
2023-06-01T11:13:07.110Z,41.39
2023-06-01T11:15:37.428Z,42.38
2023-06-01T11:18:49.102Z,42.09
2023-06-01T11:21:17.878Z,42.98
2023-06-01T11:23:53.572Z,42.39
2023-06-01T11:28:14.174Z,43.26
2023-06-01T11:33:13.707Z,41.57
2023-06-01T11:35:43.228Z,42.19
2023-06-01T11:38:13.697Z,42.00
2023-06-01T11:40:59.541Z,41.66
2023-06-01T11:43:32.321Z,42.07
2023-06-01T11:49:11.424Z,42.59
2023-06-01T11:51:39.453Z,43.15
2023-06-01T11:54:09.347Z,42.57
2023-06-01T11:56:38.423Z,42.21
2023-06-01T11:59:05.766Z,41.08
2023-06-01T12:01:32.754Z,41.27
2023-06-01T12:03:59.485Z,41.45
2023-06-01T12:06:26.242Z,40.68
2023-06-01T12:08:53.957Z,41.91
2023-06-01T12:11:25.891Z,41.76
2023-06-01T12:13:54.642Z,41.84
2023-06-01T12:16:22.848Z,41.35
2023-06-01T12:18:50.107Z,41.16
2023-06-01T12:21:16.933Z,40.26
2023-06-01T12:23:44.001Z,40.64
2023-06-01T12:26:10.606Z,40.29
2023-06-01T12:28:52.788Z,41.17
2023-06-01T12:31:23.112Z,40.36
2023-06-01T12:33:49.842Z,40.11
2023-06-01T12:36:31.011Z,40.26
2023-06-01T12:38:58.831Z,40.51
2023-06-01T12:41:26.114Z,39.94
2023-06-01T12:43:53.257Z,39.47
2023-06-01T12:46:20.287Z,39.70
2023-06-01T12:48:48.880Z,40.60
2023-06-01T12:51:16.090Z,40.28
2023-06-01T12:53:42.948Z,40.67
2023-06-01T12:56:10.004Z,41.57
2023-06-01T12:58:37.021Z,41.32
2023-06-01T13:01:04.209Z,40.75
2023-06-01T13:03:30.962Z,40.82
2023-06-01T13:05:59.018Z,41.34
2023-06-01T13:08:25.631Z,42.35
2023-06-01T13:10:52.336Z,41.95
2023-06-01T13:13:18.961Z,41.03
2023-06-01T13:15:46.510Z,41.09
2023-06-01T13:18:13.643Z,40.02
2023-06-01T13:20:40.686Z,39.00
2023-06-01T13:23:08.857Z,40.80
2023-06-01T13:25:35.658Z,40.04
2023-06-01T13:28:02.538Z,40.49
2023-06-01T13:30:29.725Z,41.17
2023-06-01T13:32:56.402Z,40.78
2023-06-01T13:35:23.433Z,40.95
2023-06-01T13:37:50.306Z,40.54
2023-06-01T13:40:18.282Z,40.26
2023-06-01T13:42:45.262Z,39.53
2023-06-01T13:45:12.243Z,41.58
2023-06-01T13:47:38.925Z,41.58
2023-06-01T13:50:06.253Z,41.91
2023-06-01T13:52:32.920Z,42.43
2023-06-01T13:54:59.604Z,41.78
2023-06-01T13:57:27.626Z,41.43
2023-06-01T13:59:54.282Z,41.95
2023-06-01T14:02:21.373Z,40.89
2023-06-01T14:04:53.597Z,42.17
2023-06-01T14:07:26.971Z,41.28
2023-06-01T14:09:54.006Z,41.64
2023-06-01T14:12:20.598Z,42.57
2023-06-01T14:14:49.860Z,42.65
2023-06-01T14:17:16.536Z,42.90
2023-06-01T14:19:43.190Z,42.44
2023-06-01T14:22:09.951Z,42.57
2023-06-01T14:24:36.795Z,42.46
2023-06-01T14:27:05.317Z,41.93
2023-06-01T14:29:31.925Z,42.70
2023-06-01T14:32:00.454Z,43.00
2023-06-01T14:34:27.140Z,42.54
2023-06-01T14:36:53.783Z,43.40
2023-06-01T14:39:20.471Z,42.95
2023-06-01T14:41:47.095Z,42.38
2023-06-01T14:44:13.876Z,41.80
2023-06-01T14:46:40.646Z,42.51
2023-06-01T14:49:08.973Z,43.01
2023-06-01T14:51:35.649Z,42.06
2023-06-01T14:54:02.372Z,41.36
2023-06-01T14:56:29.169Z,40.06
2023-06-01T14:58:55.896Z,40.83
2023-06-01T15:01:23.266Z,40.57
2023-06-01T15:03:49.962Z,41.17
2023-06-01T15:06:18.168Z,40.37
2023-06-01T15:08:44.820Z,41.25
2023-06-01T15:11:13.687Z,41.65
2023-06-01T15:13:45.034Z,42.06
2023-06-01T15:16:11.671Z,41.88
2023-06-01T15:18:38.493Z,41.99
2023-06-01T15:21:05.606Z,43.16
2023-06-01T15:23:33.889Z,43.04
2023-06-01T15:26:00.925Z,42.85
2023-06-01T15:28:27.590Z,42.71
2023-06-01T15:30:54.323Z,42.71
2023-06-01T15:33:20.979Z,43.88
2023-06-01T15:35:47.642Z,44.00
2023-06-01T15:38:14.441Z,44.35
2023-06-01T15:40:42.579Z,43.81
2023-06-01T15:43:09.251Z,43.68
2023-06-01T15:45:35.898Z,43.56
2023-06-01T15:48:02.586Z,42.12
2023-06-01T15:50:29.523Z,42.51
2023-06-01T15:52:56.108Z,42.80
2023-06-01T15:55:23.366Z,42.90
2023-06-01T15:57:51.385Z,43.19
2023-06-01T16:00:18.783Z,42.90
2023-06-01T16:02:45.525Z,42.65
2023-06-01T16:05:12.203Z,43.18
2023-06-01T16:07:38.832Z,42.83
2023-06-01T16:10:06.833Z,42.90
2023-06-01T16:12:33.613Z,42.39
2023-06-01T16:15:01.611Z,41.92
2023-06-01T16:17:28.257Z,42.16
2023-06-01T16:19:54.906Z,41.98
2023-06-01T16:22:21.534Z,42.17
2023-06-01T16:24:48.370Z,42.18
2023-06-01T16:27:15.064Z,42.19
2023-06-01T16:29:41.712Z,42.30
2023-06-01T16:32:09.898Z,41.25
2023-06-01T16:34:37.626Z,42.20
2023-06-01T16:37:04.955Z,42.83
2023-06-01T16:39:31.565Z,42.49
2023-06-01T16:42:07.287Z,43.35
2023-06-01T16:44:36.314Z,43.65
2023-06-01T16:47:18.327Z,43.06
2023-06-01T16:49:44.971Z,43.87
2023-06-01T16:52:13.362Z,43.82
2023-06-01T16:54:43.050Z,43.79
2023-06-01T16:57:09.656Z,43.80
2023-06-01T16:59:39.419Z,43.48
2023-06-01T17:02:06.318Z,42.92
2023-06-01T17:04:43.924Z,43.67
2023-06-01T17:07:13.713Z,43.75
2023-06-01T17:09:57.045Z,43.52
2023-06-01T17:12:25.884Z,44.86
2023-06-01T17:15:31.612Z,44.38
2023-06-01T17:17:58.409Z,43.90
2023-06-01T17:20:27.895Z,44.83
2023-06-01T17:22:54.645Z,45.03
2023-06-01T17:25:29.785Z,45.19
2023-06-01T17:27:58.822Z,45.28
2023-06-01T17:30:25.544Z,45.19
2023-06-01T17:32:52.229Z,45.30
2023-06-01T17:35:19.251Z,44.61
2023-06-01T17:37:47.674Z,45.82
2023-06-01T17:40:14.251Z,45.83
2023-06-01T17:42:40.905Z,44.97
2023-06-01T17:45:08.516Z,45.85
2023-06-01T17:47:35.291Z,46.38
2023-06-01T17:50:02.211Z,49.11
2023-06-01T17:52:28.817Z,50.24
2023-06-01T17:54:57.021Z,51.38
2023-06-01T17:57:23.614Z,51.61
2023-06-01T17:59:50.337Z,53.04
2023-06-01T18:02:17.305Z,53.18
2023-06-01T18:04:44.102Z,53.20
2023-06-01T18:07:10.738Z,54.40
2023-06-01T18:09:37.386Z,54.38
2023-06-01T18:12:06.607Z,54.76
2023-06-01T18:14:33.191Z,54.97
2023-06-01T18:16:59.968Z,54.73
2023-06-01T18:19:26.583Z,55.18
2023-06-01T18:21:53.405Z,54.96
2023-06-01T18:24:20.081Z,54.95
2023-06-01T18:26:46.688Z,55.96
2023-06-01T18:29:14.708Z,56.20
2023-06-01T18:31:41.317Z,56.35
2023-06-01T18:34:07.972Z,56.21
2023-06-01T18:36:34.618Z,57.36
2023-06-01T18:39:01.239Z,56.73
2023-06-01T18:41:28.096Z,57.62
2023-06-01T18:43:54.722Z,58.35
2023-06-01T18:46:22.954Z,58.19
2023-06-01T18:48:50.087Z,58.43
2023-06-01T18:51:17.080Z,58.83
2023-06-01T18:53:43.966Z,58.35
2023-06-01T18:56:10.829Z,58.43
2023-06-01T18:58:37.823Z,58.31
2023-06-01T19:01:04.781Z,58.71
2023-06-01T19:03:33.128Z,58.77
2023-06-01T19:06:00.004Z,58.91
2023-06-01T19:08:29.355Z,59.50
2023-06-01T19:10:59.495Z,59.68
2023-06-01T19:13:33.692Z,59.68
2023-06-01T19:16:04.191Z,59.50
2023-06-01T19:18:30.789Z,59.32
2023-06-01T19:21:17.941Z,59.65
2023-06-01T19:23:50.061Z,60.60
2023-06-01T19:26:20.010Z,60.41
2023-06-01T19:28:49.699Z,60.59
2023-06-01T19:31:20.503Z,60.96
2023-06-01T19:33:47.516Z,61.59
2023-06-01T19:37:00.624Z,61.41
2023-06-01T19:39:29.590Z,61.17
2023-06-01T19:42:00.565Z,61.21
2023-06-01T19:44:29.140Z,61.54
2023-06-01T19:46:55.781Z,61.83
2023-06-01T19:49:22.370Z,61.17
2023-06-01T19:51:50.537Z,61.73
2023-06-01T19:54:20.314Z,61.89
2023-06-01T19:56:47.061Z,62.10
2023-06-01T19:59:19.167Z,62.31
2023-06-01T20:01:45.876Z,62.01
2023-06-01T20:04:12.714Z,62.45
2023-06-01T20:06:41.311Z,61.86
2023-06-01T20:09:10.688Z,61.71
2023-06-01T20:11:38.247Z,61.77
2023-06-01T20:14:11.019Z,61.90
2023-06-01T20:16:37.741Z,62.10
2023-06-01T20:19:04.650Z,61.63
2023-06-01T20:21:31.349Z,61.97
2023-06-01T20:24:01.101Z,62.28
2023-06-01T20:26:29.284Z,61.61
2023-06-01T20:29:10.148Z,62.31
2023-06-01T20:31:36.904Z,62.20
2023-06-01T20:34:05.475Z,62.18
2023-06-01T20:36:35.173Z,62.01
2023-06-01T20:39:09.421Z,62.21
2023-06-01T20:41:51.776Z,62.17
2023-06-01T20:44:20.492Z,62.02
2023-06-01T20:46:47.365Z,62.21
2023-06-01T20:49:13.991Z,62.19
2023-06-01T20:51:42.824Z,62.94
2023-06-01T20:54:10.992Z,62.86
2023-06-01T20:56:40.498Z,63.08
2023-06-01T20:59:10.398Z,63.22
2023-06-01T21:01:38.667Z,63.30
2023-06-01T21:04:07.119Z,63.45
2023-06-01T21:06:34.166Z,63.98
2023-06-01T21:09:01.123Z,63.82
2023-06-01T21:11:27.906Z,64.12
2023-06-01T21:13:56.251Z,65.03
2023-06-01T21:16:23.766Z,64.89
2023-06-01T21:18:50.875Z,65.13
2023-06-01T21:21:17.718Z,65.90
2023-06-01T21:23:44.550Z,65.82
2023-06-01T21:26:11.674Z,65.59
2023-06-01T21:28:38.397Z,65.99
2023-06-01T21:31:06.885Z,65.62
2023-06-01T21:33:33.898Z,65.34
2023-06-01T21:36:00.586Z,65.89
2023-06-01T21:38:27.330Z,65.70
2023-06-01T21:40:54.052Z,65.85
2023-06-01T21:43:20.744Z,66.02
2023-06-01T21:45:47.943Z,65.66
2023-06-01T21:48:16.759Z,65.44
2023-06-01T21:50:44.200Z,64.86
2023-06-01T21:53:11.305Z,65.00
2023-06-01T21:55:38.143Z,64.31
2023-06-01T21:58:05.209Z,65.22
2023-06-01T22:00:31.954Z,64.25
2023-06-01T22:02:58.832Z,64.99
2023-06-01T22:05:27.039Z,65.17
2023-06-01T22:07:53.938Z,64.96
2023-06-01T22:10:20.726Z,64.50
2023-06-01T22:12:47.394Z,64.12
2023-06-01T22:15:14.196Z,63.71
2023-06-01T22:17:40.921Z,63.11
2023-06-01T22:20:08.723Z,62.94
2023-06-01T22:22:37.883Z,62.98
2023-06-01T22:25:05.725Z,63.21
2023-06-01T22:27:32.517Z,63.27
2023-06-01T22:29:59.370Z,62.86
2023-06-01T22:32:26.103Z,63.15
2023-06-01T22:34:52.973Z,63.16
2023-06-01T22:37:19.675Z,62.60
2023-06-01T22:39:47.781Z,63.06
2023-06-01T22:42:14.613Z,62.58
2023-06-01T22:44:41.266Z,63.04
2023-06-01T22:47:08.232Z,63.11
2023-06-01T22:49:35.151Z,63.11
2023-06-01T22:52:02.568Z,62.77
2023-06-01T22:54:29.906Z,62.77
2023-06-01T22:56:58.422Z,62.07
2023-06-01T22:59:25.401Z,61.90
2023-06-01T23:01:52.193Z,62.25
2023-06-01T23:04:19.149Z,61.27
2023-06-01T23:06:46.543Z,61.85
2023-06-01T23:09:13.270Z,62.75
2023-06-01T23:11:39.923Z,62.36
2023-06-01T23:14:07.983Z,61.88
2023-06-01T23:16:34.892Z,62.10
2023-06-01T23:19:01.568Z,62.29
2023-06-01T23:21:28.483Z,62.56
2023-06-01T23:23:55.201Z,62.12
2023-06-01T23:26:21.925Z,61.59
2023-06-01T23:28:52.814Z,62.03
2023-06-01T23:31:20.905Z,61.79
2023-06-01T23:33:47.600Z,61.44
2023-06-01T23:36:14.534Z,61.23
2023-06-01T23:38:41.492Z,61.79
2023-06-01T23:41:08.159Z,61.39
2023-06-01T23:43:34.966Z,61.47
2023-06-01T23:46:01.803Z,61.53
2023-06-01T23:48:30.059Z,61.94
2023-06-01T23:50:56.716Z,62.23
2023-06-01T23:53:23.440Z,62.40
2023-06-01T23:55:50.130Z,61.81
2023-06-01T23:58:16.815Z,61.40
